地図

経路データ

SID SEASON NUMBER BASIN SUBBASIN NAME ISO_TIME NATURE LAT LON WMO_WIND WMO_PRES WMO_AGENCY TRACK_TYPE DIST2LAND LANDFALL IFLAG USA_AGENCY USA_ATCF_ID USA_LAT USA_LON USA_RECORD USA_STATUS USA_WIND USA_PRES USA_SSHS USA_R34_NE USA_R34_SE USA_R34_SW USA_R34_NW USA_R50_NE USA_R50_SE USA_R50_SW USA_R50_NW USA_R64_NE USA_R64_SE USA_R64_SW USA_R64_NW USA_POCI USA_ROCI USA_RMW USA_EYE TOKYO_LAT TOKYO_LON TOKYO_GRADE TOKYO_WIND TOKYO_PRES TOKYO_R50_DIR TOKYO_R50_LONG TOKYO_R50_SHORT TOKYO_R30_DIR TOKYO_R30_LONG TOKYO_R30_SHORT TOKYO_LAND CMA_LAT CMA_LON CMA_CAT CMA_WIND CMA_PRES HKO_LAT HKO_LON HKO_CAT HKO_WIND HKO_PRES NEWDELHI_LAT NEWDELHI_LON NEWDELHI_GRADE NEWDELHI_WIND NEWDELHI_PRES NEWDELHI_CI NEWDELHI_DP NEWDELHI_POCI REUNION_LAT REUNION_LON REUNION_TYPE REUNION_WIND REUNION_PRES REUNION_TNUM REUNION_CI REUNION_RMW REUNION_R34_NE REUNION_R34_SE REUNION_R34_SW REUNION_R34_NW REUNION_R50_NE REUNION_R50_SE REUNION_R50_SW REUNION_R50_NW REUNION_R64_NE REUNION_R64_SE REUNION_R64_SW REUNION_R64_NW BOM_LAT BOM_LON BOM_TYPE BOM_WIND BOM_PRES BOM_TNUM BOM_CI BOM_RMW BOM_R34_NE BOM_R34_SE BOM_R34_SW BOM_R34_NW BOM_R50_NE BOM_R50_SE BOM_R50_SW BOM_R50_NW BOM_R64_NE BOM_R64_SE BOM_R64_SW BOM_R64_NW BOM_ROCI BOM_POCI BOM_EYE BOM_POS_METHOD BOM_PRES_METHOD NADI_LAT NADI_LON NADI_CAT NADI_WIND NADI_PRES WELLINGTON_LAT WELLINGTON_LON WELLINGTON_WIND WELLINGTON_PRES DS824_LAT DS824_LON DS824_STAGE DS824_WIND DS824_PRES TD9636_LAT TD9636_LON TD9636_STAGE TD9636_WIND TD9636_PRES TD9635_LAT TD9635_LON TD9635_WIND TD9635_PRES TD9635_ROCI NEUMANN_LAT NEUMANN_LON NEUMANN_CLASS NEUMANN_WIND NEUMANN_PRES MLC_LAT MLC_LON MLC_CLASS MLC_WIND MLC_PRES USA_GUST BOM_GUST BOM_GUST_PER REUNION_GUST REUNION_GUST_PER USA_SEAHGT USA_SEARAD_NE USA_SEARAD_SE USA_SEARAD_SW USA_SEARAD_NW STORM_SPEED STORM_DIR
1892347N27320 1892 62 NA NA NOT_NAMED 1892-12-11 12:00:00 TS 27.0000 -40.0000 main 2283 2283 _____________O -1 27.0000 -40.0000 TD 30 12 245
1892347N27320 1892 62 NA NA NOT_NAMED 1892-12-11 15:00:00 TS 26.7504 -40.5905 main 2346 2346 _____________P -1 26.7504 -40.5905 TD 35 12 245
1892347N27320 1892 62 NA NA NOT_NAMED 1892-12-11 18:00:00 TS 26.5000 -41.2000 main 2410 2410 _____________O -1 26.5000 -41.2000 TS 40 12 246
1892347N27320 1892 62 NA NA NOT_NAMED 1892-12-11 21:00:00 TS 26.2498 -41.8423 main 2475 2473 _____________P -1 26.2498 -41.8423 TS 45 13 247
1892347N27320 1892 62 NA NA NOT_NAMED 1892-12-12 00:00:00 TS 26.0000 -42.5000 main 2480 2456 _____________O -1 26.0000 -42.5000 TS 50 13 247
1892347N27320 1892 62 NA NA NOT_NAMED 1892-12-12 03:00:00 TS 25.7498 -43.1573 main 2443 2379 _____________P -1 25.7498 -43.1573 TS 55 13 247
1892347N27320 1892 62 NA NA NOT_NAMED 1892-12-12 06:00:00 TS 25.5000 -43.8000 main 2379 2303 _____________O -1 25.5000 -43.8000 TS 60 13 245
1892347N27320 1892 62 NA NA NOT_NAMED 1892-12-12 09:00:00 TS 25.1829 -44.5130 main 2303 2248 _____________P -1 25.1829 -44.5130 TS 60 12 245
1892347N27320 1892 62 NA NA NOT_NAMED 1892-12-12 12:00:00 TS 25.0000 -45.0000 main 2248 2239 _____________O -1 25.0000 -45.0000 TS 60 5 264
1892347N27320 1892 62 NA NA NOT_NAMED 1892-12-12 15:00:00 TS 25.1322 -45.0123 main 2251 2251 _____________P -1 25.1322 -45.0123 TS 62 4 24
1892347N27320 1892 62 NA NA NOT_NAMED 1892-12-12 18:00:00 TS 25.4000 -44.8000 main 2280 2280 _____________O -1 25.4000 -44.8000 HU 65 6 33
1892347N27320 1892 62 NA NA NOT_NAMED 1892-12-12 21:00:00 TS 25.5999 -44.6724 main 2295 2295 _____________P -1 25.5999 -44.6724 HU 65 5 34
1892347N27320 1892 62 NA NA NOT_NAMED 1892-12-13 00:00:00 TS 25.8000 -44.5000 main 2321 2321 _____________O -1 25.8000 -44.5000 HU 65 5 42
1892347N27320 1892 62 NA NA NOT_NAMED 1892-12-13 03:00:00 TS 26.0075 -44.2650 main 2347 2347 _____________P -1 26.0075 -44.2650 HU 65 6 48
1892347N27320 1892 62 NA NA NOT_NAMED 1892-12-13 06:00:00 TS 26.2000 -44.0000 main 2382 2382 _____________O -1 26.2000 -44.0000 HU 65 6 53
1892347N27320 1892 62 NA NA NOT_NAMED 1892-12-13 09:00:00 TS 26.3424 -43.7647 main 2404 2392 _____________P -1 26.3424 -43.7647 HU 65 5 56
1892347N27320 1892 62 NA NA NOT_NAMED 1892-12-13 12:00:00 TS 26.5000 -43.5000 main 2395 2380 _____________O -1 26.5000 -43.5000 HU 65 7 54
1892347N27320 1892 62 NA NA NOT_NAMED 1892-12-13 15:00:00 TS 26.7351 -43.1576 main 2383 2362 _____________P -1 26.7351 -43.1576 HU 65 8 51
1892347N27320 1892 62 NA NA NOT_NAMED 1892-12-13 18:00:00 TS 27.0000 -42.8000 main 2365 2351 _____________O -1 27.0000 -42.8000 HU 65 8 49
1892347N27320 1892 62 NA NA NOT_NAMED 1892-12-13 21:00:00 TS 27.2499 -42.4923 main 2354 2334 _____________P -1 27.2499 -42.4923 HU 65 7 47
1892347N27320 1892 62 NA NA NOT_NAMED 1892-12-14 00:00:00 TS 27.5000 -42.2000 main 2334 2320 _____________O -1 27.5000 -42.2000 HU 65 7 46
1892347N27320 1892 62 NA NA NOT_NAMED 1892-12-14 03:00:00 TS 27.7499 -41.8999 main 2324 2304 _____________P -1 27.7499 -41.8999 HU 65 7 47
1892347N27320 1892 62 NA NA NOT_NAMED 1892-12-14 06:00:00 TS 28.0000 -41.6000 main 2304 2288 _____________O -1 28.0000 -41.6000 HU 65 6 42
1892347N27320 1892 62 NA NA NOT_NAMED 1892-12-14 09:00:00 TS 28.2108 -41.4254 main 2291 2273 _____________P -1 28.2108 -41.4254 HU 65 7 47
1892347N27320 1892 62 NA NA NOT_NAMED 1892-12-14 12:00:00 TS 28.5000 -41.0000 main 2277 2259 _____________O -1 28.5000 -41.0000 HU 65 15 59
1892347N27320 1892 62 NA NA NOT_NAMED 1892-12-14 15:00:00 TS 28.9642 -39.9713 main 2258 2139 _____________P -1 28.9642 -39.9713 HU 65 22 64
1892347N27320 1892 62 NA NA NOT_NAMED 1892-12-14 18:00:00 TS 29.5000 -38.7000 main 2130 2033 _____________O -1 29.5000 -38.7000 HU 65 23 66
1892347N27320 1892 62 NA NA NOT_NAMED 1892-12-14 21:00:00 TS 29.8860 -37.6091 main 2023 1928 _____________P -1 29.8860 -37.6091 HU 60 22 62
1892347N27320 1892 62 NA NA NOT_NAMED 1892-12-15 00:00:00 TS 30.5000 -36.5000 main 1919 1804 _____________O -1 30.5000 -36.5000 TS 55 27 52
1892347N27320 1892 62 NA NA NOT_NAMED 1892-12-15 03:00:00 TS 31.5280 -35.1282 main 1795 1719 _____________P -1 31.5280 -35.1282 TS 50 33 40
1892347N27320 1892 62 NA NA NOT_NAMED 1892-12-15 06:00:00 TS 33.0000 -34.0000 main 1722 1714 _____________O -1 33.0000 -34.0000 TS 45 36 22
1892347N27320 1892 62 NA NA NOT_NAMED 1892-12-15 09:00:00 TS 34.8851 -33.5359 main 1739 1739 _____________P -1 34.8851 -33.5359 TS 45 40 6
1892347N27320 1892 62 NA NA NOT_NAMED 1892-12-15 12:00:00 TS 37.0000 -33.5000 main 1833 _____________O -1 37.0000 -33.5000 TS 45 42 1

IBTrACS Databaseについて

本データベースは、米国NOAAが公開する1842年以降の世界の熱帯低気圧のベストトラックデータアーカイブInternational Best Track Archive for Climate Stewardship (IBTrACS)を、ウェブで閲覧しやすい形式に変換したものです。

最終更新日:2021-12-03